sensor_id;sensor_type;location;lat;lon;timestamp;temperature;humidity
16627;DHT22;8427;52.204;7.202;2024-01-27T00:00:18;2.80;89.90
16627;DHT22;8427;52.204;7.202;2024-01-27T00:02:47;2.70;89.80
16627;DHT22;8427;52.204;7.202;2024-01-27T00:05:15;2.70;89.90
16627;DHT22;8427;52.204;7.202;2024-01-27T00:07:44;2.90;89.90
16627;DHT22;8427;52.204;7.202;2024-01-27T00:10:14;2.90;90.00
16627;DHT22;8427;52.204;7.202;2024-01-27T00:12:42;2.80;89.90
16627;DHT22;8427;52.204;7.202;2024-01-27T00:15:11;2.90;89.80
16627;DHT22;8427;52.204;7.202;2024-01-27T00:17:39;2.90;89.80
16627;DHT22;8427;52.204;7.202;2024-01-27T00:20:08;2.70;89.90
16627;DHT22;8427;52.204;7.202;2024-01-27T00:22:37;2.80;89.70
16627;DHT22;8427;52.204;7.202;2024-01-27T00:25:06;2.70;89.80
16627;DHT22;8427;52.204;7.202;2024-01-27T00:27:36;2.80;89.80
16627;DHT22;8427;52.204;7.202;2024-01-27T00:30:06;2.70;90.00
16627;DHT22;8427;52.204;7.202;2024-01-27T00:32:34;2.90;90.00
16627;DHT22;8427;52.204;7.202;2024-01-27T00:35:03;2.70;90.00
16627;DHT22;8427;52.204;7.202;2024-01-27T00:37:31;2.70;89.90
16627;DHT22;8427;52.204;7.202;2024-01-27T00:40:00;2.60;89.90
16627;DHT22;8427;52.204;7.202;2024-01-27T00:42:28;2.70;90.00
16627;DHT22;8427;52.204;7.202;2024-01-27T00:44:58;2.60;89.80
16627;DHT22;8427;52.204;7.202;2024-01-27T00:47:26;2.70;89.90
16627;DHT22;8427;52.204;7.202;2024-01-27T00:49:55;2.70;89.90
16627;DHT22;8427;52.204;7.202;2024-01-27T00:52:23;2.80;89.80
16627;DHT22;8427;52.204;7.202;2024-01-27T00:54:52;2.60;89.90
16627;DHT22;8427;52.204;7.202;2024-01-27T00:57:20;2.90;89.80
16627;DHT22;8427;52.204;7.202;2024-01-27T00:59:48;2.60;89.80
16627;DHT22;8427;52.204;7.202;2024-01-27T01:02:18;2.80;89.70
16627;DHT22;8427;52.204;7.202;2024-01-27T01:04:47;3.00;89.60
16627;DHT22;8427;52.204;7.202;2024-01-27T01:07:15;2.80;89.70
16627;DHT22;8427;52.204;7.202;2024-01-27T01:09:43;2.70;89.70
16627;DHT22;8427;52.204;7.202;2024-01-27T01:12:12;2.70;89.80
16627;DHT22;8427;52.204;7.202;2024-01-27T01:14:42;2.60;89.90
16627;DHT22;8427;52.204;7.202;2024-01-27T01:17:11;2.70;90.00
16627;DHT22;8427;52.204;7.202;2024-01-27T01:19:41;2.80;89.80
16627;DHT22;8427;52.204;7.202;2024-01-27T01:22:10;2.70;90.00
16627;DHT22;8427;52.204;7.202;2024-01-27T01:24:39;2.70;90.00
16627;DHT22;8427;52.204;7.202;2024-01-27T01:27:07;2.50;89.90
16627;DHT22;8427;52.204;7.202;2024-01-27T01:29:35;2.70;90.00
16627;DHT22;8427;52.204;7.202;2024-01-27T01:32:05;2.80;89.90
16627;DHT22;8427;52.204;7.202;2024-01-27T01:34:33;2.70;89.90
16627;DHT22;8427;52.204;7.202;2024-01-27T01:37:03;2.80;90.00
16627;DHT22;8427;52.204;7.202;2024-01-27T01:39:32;2.60;90.00
16627;DHT22;8427;52.204;7.202;2024-01-27T01:42:00;2.60;90.00
16627;DHT22;8427;52.204;7.202;2024-01-27T01:44:30;2.60;90.20
16627;DHT22;8427;52.204;7.202;2024-01-27T01:46:58;2.50;90.00
16627;DHT22;8427;52.204;7.202;2024-01-27T01:49:27;2.50;90.20
16627;DHT22;8427;52.204;7.202;2024-01-27T01:51:55;2.50;90.10
16627;DHT22;8427;52.204;7.202;2024-01-27T01:54:25;2.30;90.20
16627;DHT22;8427;52.204;7.202;2024-01-27T01:56:55;2.40;90.30
16627;DHT22;8427;52.204;7.202;2024-01-27T01:59:26;2.40;90.50
16627;DHT22;8427;52.204;7.202;2024-01-27T02:01:54;2.20;90.50
16627;DHT22;8427;52.204;7.202;2024-01-27T02:04:23;2.50;90.60
16627;DHT22;8427;52.204;7.202;2024-01-27T02:06:51;2.50;90.80
16627;DHT22;8427;52.204;7.202;2024-01-27T02:09:20;2.40;90.70
16627;DHT22;8427;52.204;7.202;2024-01-27T02:11:50;2.40;90.70
16627;DHT22;8427;52.204;7.202;2024-01-27T02:14:18;2.40;90.60
16627;DHT22;8427;52.204;7.202;2024-01-27T02:16:47;2.50;90.60
16627;DHT22;8427;52.204;7.202;2024-01-27T02:19:15;2.20;90.60
16627;DHT22;8427;52.204;7.202;2024-01-27T02:21:44;2.30;90.80
16627;DHT22;8427;52.204;7.202;2024-01-27T02:24:14;2.40;90.70
16627;DHT22;8427;52.204;7.202;2024-01-27T02:26:42;2.30;90.80
16627;DHT22;8427;52.204;7.202;2024-01-27T02:29:11;2.10;90.90
16627;DHT22;8427;52.204;7.202;2024-01-27T02:31:39;2.40;91.00
16627;DHT22;8427;52.204;7.202;2024-01-27T02:34:08;2.30;90.90
16627;DHT22;8427;52.204;7.202;2024-01-27T02:36:36;2.20;90.90
16627;DHT22;8427;52.204;7.202;2024-01-27T02:39:05;2.30;91.00
16627;DHT22;8427;52.204;7.202;2024-01-27T02:41:35;2.20;90.90
16627;DHT22;8427;52.204;7.202;2024-01-27T02:44:06;2.00;91.10
16627;DHT22;8427;52.204;7.202;2024-01-27T02:46:34;2.00;91.10
16627;DHT22;8427;52.204;7.202;2024-01-27T02:49:03;2.20;91.20
16627;DHT22;8427;52.204;7.202;2024-01-27T02:51:31;2.00;91.10
16627;DHT22;8427;52.204;7.202;2024-01-27T02:54:00;2.30;91.20
16627;DHT22;8427;52.204;7.202;2024-01-27T02:56:28;2.00;91.10
16627;DHT22;8427;52.204;7.202;2024-01-27T02:58:58;2.00;91.30
16627;DHT22;8427;52.204;7.202;2024-01-27T03:01:26;2.00;91.40
16627;DHT22;8427;52.204;7.202;2024-01-27T03:03:55;2.20;91.40
16627;DHT22;8427;52.204;7.202;2024-01-27T03:06:23;2.00;91.50
16627;DHT22;8427;52.204;7.202;2024-01-27T03:08:52;2.00;91.50
16627;DHT22;8427;52.204;7.202;2024-01-27T03:11:21;2.10;91.40
16627;DHT22;8427;52.204;7.202;2024-01-27T03:13:50;1.90;91.60
16627;DHT22;8427;52.204;7.202;2024-01-27T03:16:20;2.10;91.40
16627;DHT22;8427;52.204;7.202;2024-01-27T03:18:48;2.10;91.50
16627;DHT22;8427;52.204;7.202;2024-01-27T03:21:17;1.90;91.70
16627;DHT22;8427;52.204;7.202;2024-01-27T03:23:45;2.00;91.60
16627;DHT22;8427;52.204;7.202;2024-01-27T03:26:14;2.10;91.60
16627;DHT22;8427;52.204;7.202;2024-01-27T03:28:42;2.00;91.60
16627;DHT22;8427;52.204;7.202;2024-01-27T03:31:10;2.10;91.60
16627;DHT22;8427;52.204;7.202;2024-01-27T03:33:40;2.00;91.60
16627;DHT22;8427;52.204;7.202;2024-01-27T03:36:09;2.00;91.70
16627;DHT22;8427;52.204;7.202;2024-01-27T03:38:39;1.80;91.80
16627;DHT22;8427;52.204;7.202;2024-01-27T03:41:08;2.00;91.70
16627;DHT22;8427;52.204;7.202;2024-01-27T03:43:36;2.00;91.80
16627;DHT22;8427;52.204;7.202;2024-01-27T03:46:05;1.90;91.70
16627;DHT22;8427;52.204;7.202;2024-01-27T03:48:33;2.10;91.70
16627;DHT22;8427;52.204;7.202;2024-01-27T03:51:04;1.80;91.70
16627;DHT22;8427;52.204;7.202;2024-01-27T03:53:33;1.90;91.70
16627;DHT22;8427;52.204;7.202;2024-01-27T03:56:01;1.80;91.80
16627;DHT22;8427;52.204;7.202;2024-01-27T03:58:31;1.90;91.70
16627;DHT22;8427;52.204;7.202;2024-01-27T04:01:00;2.00;91.80
16627;DHT22;8427;52.204;7.202;2024-01-27T04:03:29;1.90;91.70
16627;DHT22;8427;52.204;7.202;2024-01-27T04:05:57;2.00;91.70
16627;DHT22;8427;52.204;7.202;2024-01-27T04:08:28;1.90;91.70
16627;DHT22;8427;52.204;7.202;2024-01-27T04:10:57;1.80;91.90
16627;DHT22;8427;52.204;7.202;2024-01-27T04:13:25;1.90;91.80
16627;DHT22;8427;52.204;7.202;2024-01-27T04:15:54;1.80;92.10
16627;DHT22;8427;52.204;7.202;2024-01-27T04:18:24;1.70;91.80
16627;DHT22;8427;52.204;7.202;2024-01-27T04:20:53;1.80;91.90
16627;DHT22;8427;52.204;7.202;2024-01-27T04:23:21;1.80;91.90
16627;DHT22;8427;52.204;7.202;2024-01-27T04:25:51;1.70;91.90
16627;DHT22;8427;52.204;7.202;2024-01-27T04:28:20;1.90;91.90
16627;DHT22;8427;52.204;7.202;2024-01-27T04:30:48;1.90;91.80
16627;DHT22;8427;52.204;7.202;2024-01-27T04:33:17;2.00;91.80
16627;DHT22;8427;52.204;7.202;2024-01-27T04:35:45;1.80;91.90
16627;DHT22;8427;52.204;7.202;2024-01-27T04:38:14;1.90;92.00
16627;DHT22;8427;52.204;7.202;2024-01-27T04:40:43;1.90;92.00
16627;DHT22;8427;52.204;7.202;2024-01-27T04:43:15;1.90;91.90
16627;DHT22;8427;52.204;7.202;2024-01-27T04:45:44;1.90;91.90
16627;DHT22;8427;52.204;7.202;2024-01-27T04:48:13;1.80;92.10
16627;DHT22;8427;52.204;7.202;2024-01-27T04:50:41;2.00;92.00
16627;DHT22;8427;52.204;7.202;2024-01-27T04:53:10;1.90;92.10
16627;DHT22;8427;52.204;7.202;2024-01-27T04:55:39;1.80;92.10
16627;DHT22;8427;52.204;7.202;2024-01-27T04:58:07;1.90;92.00
16627;DHT22;8427;52.204;7.202;2024-01-27T05:00:37;2.00;92.00
16627;DHT22;8427;52.204;7.202;2024-01-27T05:03:06;1.80;92.10
16627;DHT22;8427;52.204;7.202;2024-01-27T05:05:41;1.90;92.00
16627;DHT22;8427;52.204;7.202;2024-01-27T05:08:10;1.90;92.00
16627;DHT22;8427;52.204;7.202;2024-01-27T05:10:38;2.00;92.10
16627;DHT22;8427;52.204;7.202;2024-01-27T05:13:07;1.80;92.10
16627;DHT22;8427;52.204;7.202;2024-01-27T05:15:37;1.90;92.10
16627;DHT22;8427;52.204;7.202;2024-01-27T05:18:06;1.80;92.20
16627;DHT22;8427;52.204;7.202;2024-01-27T05:20:35;1.90;92.20
16627;DHT22;8427;52.204;7.202;2024-01-27T05:23:03;1.80;92.20
16627;DHT22;8427;52.204;7.202;2024-01-27T05:25:32;1.80;92.40
16627;DHT22;8427;52.204;7.202;2024-01-27T05:28:00;1.80;92.20
16627;DHT22;8427;52.204;7.202;2024-01-27T05:30:29;1.70;92.30
16627;DHT22;8427;52.204;7.202;2024-01-27T05:32:59;1.70;92.30
16627;DHT22;8427;52.204;7.202;2024-01-27T05:35:28;1.90;92.30
16627;DHT22;8427;52.204;7.202;2024-01-27T05:37:57;1.70;92.10
16627;DHT22;8427;52.204;7.202;2024-01-27T05:40:25;1.70;92.20
16627;DHT22;8427;52.204;7.202;2024-01-27T05:42:54;1.70;92.20
16627;DHT22;8427;52.204;7.202;2024-01-27T05:45:22;1.60;92.30
16627;DHT22;8427;52.204;7.202;2024-01-27T05:47:51;1.70;92.20
16627;DHT22;8427;52.204;7.202;2024-01-27T05:50:21;1.80;92.10
16627;DHT22;8427;52.204;7.202;2024-01-27T05:52:50;1.60;92.20
16627;DHT22;8427;52.204;7.202;2024-01-27T05:55:19;1.60;92.20
16627;DHT22;8427;52.204;7.202;2024-01-27T05:57:47;1.70;92.30
16627;DHT22;8427;52.204;7.202;2024-01-27T06:00:16;1.70;92.30
16627;DHT22;8427;52.204;7.202;2024-01-27T06:02:44;1.60;92.30
16627;DHT22;8427;52.204;7.202;2024-01-27T06:05:13;1.80;92.20
16627;DHT22;8427;52.204;7.202;2024-01-27T06:07:43;1.50;92.10
16627;DHT22;8427;52.204;7.202;2024-01-27T06:10:13;1.60;92.20
16627;DHT22;8427;52.204;7.202;2024-01-27T06:12:42;1.70;92.30
16627;DHT22;8427;52.204;7.202;2024-01-27T06:15:11;1.40;92.20
16627;DHT22;8427;52.204;7.202;2024-01-27T06:17:39;1.40;92.40
16627;DHT22;8427;52.204;7.202;2024-01-27T06:20:08;1.30;92.50
16627;DHT22;8427;52.204;7.202;2024-01-27T06:22:37;1.20;92.50
16627;DHT22;8427;52.204;7.202;2024-01-27T06:25:08;1.40;92.50
16627;DHT22;8427;52.204;7.202;2024-01-27T06:27:37;1.30;92.60
16627;DHT22;8427;52.204;7.202;2024-01-27T06:30:09;1.20;92.70
16627;DHT22;8427;52.204;7.202;2024-01-27T06:32:38;1.20;92.60
16627;DHT22;8427;52.204;7.202;2024-01-27T06:35:07;1.30;92.50
16627;DHT22;8427;52.204;7.202;2024-01-27T06:37:36;1.20;92.60
16627;DHT22;8427;52.204;7.202;2024-01-27T06:40:07;1.10;92.90
16627;DHT22;8427;52.204;7.202;2024-01-27T06:42:36;1.10;92.80
16627;DHT22;8427;52.204;7.202;2024-01-27T06:45:06;1.10;92.70
16627;DHT22;8427;52.204;7.202;2024-01-27T06:47:34;1.20;92.80
16627;DHT22;8427;52.204;7.202;2024-01-27T06:50:03;1.10;92.80
16627;DHT22;8427;52.204;7.202;2024-01-27T06:52:31;1.10;92.80
16627;DHT22;8427;52.204;7.202;2024-01-27T06:55:00;1.30;92.80
16627;DHT22;8427;52.204;7.202;2024-01-27T06:57:30;0.90;92.80
16627;DHT22;8427;52.204;7.202;2024-01-27T06:59:58;1.30;93.10
16627;DHT22;8427;52.204;7.202;2024-01-27T07:02:28;1.20;93.00
16627;DHT22;8427;52.204;7.202;2024-01-27T07:04:56;1.00;93.10
16627;DHT22;8427;52.204;7.202;2024-01-27T07:07:27;0.90;93.10
16627;DHT22;8427;52.204;7.202;2024-01-27T07:09:56;1.10;93.20
16627;DHT22;8427;52.204;7.202;2024-01-27T07:12:25;1.10;93.20
16627;DHT22;8427;52.204;7.202;2024-01-27T07:14:55;1.10;93.20
16627;DHT22;8427;52.204;7.202;2024-01-27T07:17:24;1.00;93.30
16627;DHT22;8427;52.204;7.202;2024-01-27T07:19:53;1.30;93.30
16627;DHT22;8427;52.204;7.202;2024-01-27T07:22:22;1.00;93.20
16627;DHT22;8427;52.204;7.202;2024-01-27T07:24:51;0.90;93.20
16627;DHT22;8427;52.204;7.202;2024-01-27T07:27:19;1.00;93.30
16627;DHT22;8427;52.204;7.202;2024-01-27T07:29:48;0.90;93.20
16627;DHT22;8427;52.204;7.202;2024-01-27T07:32:18;1.00;93.20
16627;DHT22;8427;52.204;7.202;2024-01-27T07:34:47;0.80;93.20
16627;DHT22;8427;52.204;7.202;2024-01-27T07:37:15;0.90;93.10
16627;DHT22;8427;52.204;7.202;2024-01-27T07:39:44;0.90;93.20
16627;DHT22;8427;52.204;7.202;2024-01-27T07:42:12;1.00;93.20
16627;DHT22;8427;52.204;7.202;2024-01-27T07:44:41;0.90;93.10
16627;DHT22;8427;52.204;7.202;2024-01-27T07:47:10;0.80;93.20
16627;DHT22;8427;52.204;7.202;2024-01-27T07:49:40;0.80;93.40
16627;DHT22;8427;52.204;7.202;2024-01-27T07:52:09;1.00;93.50
16627;DHT22;8427;52.204;7.202;2024-01-27T07:54:37;0.90;93.40
16627;DHT22;8427;52.204;7.202;2024-01-27T07:57:07;0.80;93.30
16627;DHT22;8427;52.204;7.202;2024-01-27T07:59:36;0.80;93.40
16627;DHT22;8427;52.204;7.202;2024-01-27T08:02:05;1.00;93.40
16627;DHT22;8427;52.204;7.202;2024-01-27T08:04:34;1.10;93.40
16627;DHT22;8427;52.204;7.202;2024-01-27T08:07:04;1.00;93.40
16627;DHT22;8427;52.204;7.202;2024-01-27T08:09:37;1.10;93.30
16627;DHT22;8427;52.204;7.202;2024-01-27T08:12:06;1.30;93.20
16627;DHT22;8427;52.204;7.202;2024-01-27T08:14:34;1.20;93.20
16627;DHT22;8427;52.204;7.202;2024-01-27T08:17:04;1.30;93.10
16627;DHT22;8427;52.204;7.202;2024-01-27T08:19:33;1.20;93.20
16627;DHT22;8427;52.204;7.202;2024-01-27T08:22:01;1.30;93.10
16627;DHT22;8427;52.204;7.202;2024-01-27T08:24:31;1.30;93.10
16627;DHT22;8427;52.204;7.202;2024-01-27T08:27:00;1.20;93.10
16627;DHT22;8427;52.204;7.202;2024-01-27T08:29:29;1.60;93.10
16627;DHT22;8427;52.204;7.202;2024-01-27T08:31:58;1.30;92.90
16627;DHT22;8427;52.204;7.202;2024-01-27T08:34:26;1.50;92.90
16627;DHT22;8427;52.204;7.202;2024-01-27T08:37:02;1.60;92.90
16627;DHT22;8427;52.204;7.202;2024-01-27T08:39:32;1.50;93.00
16627;DHT22;8427;52.204;7.202;2024-01-27T08:42:00;1.50;92.70
16627;DHT22;8427;52.204;7.202;2024-01-27T08:44:29;1.70;92.60
16627;DHT22;8427;52.204;7.202;2024-01-27T08:46:57;1.50;92.70
16627;DHT22;8427;52.204;7.202;2024-01-27T08:49:29;1.70;92.50
16627;DHT22;8427;52.204;7.202;2024-01-27T08:51:58;1.70;92.40
16627;DHT22;8427;52.204;7.202;2024-01-27T08:54:26;1.90;92.40
16627;DHT22;8427;52.204;7.202;2024-01-27T08:56:56;2.00;92.30
16627;DHT22;8427;52.204;7.202;2024-01-27T08:59:25;2.00;92.10
16627;DHT22;8427;52.204;7.202;2024-01-27T09:01:54;2.00;92.00
16627;DHT22;8427;52.204;7.202;2024-01-27T09:04:22;2.10;92.00
16627;DHT22;8427;52.204;7.202;2024-01-27T09:06:51;2.20;91.80
16627;DHT22;8427;52.204;7.202;2024-01-27T09:09:19;2.20;91.50
16627;DHT22;8427;52.204;7.202;2024-01-27T09:11:48;2.40;91.20
16627;DHT22;8427;52.204;7.202;2024-01-27T09:14:18;2.50;91.10
16627;DHT22;8427;52.204;7.202;2024-01-27T09:16:47;2.50;90.90
16627;DHT22;8427;52.204;7.202;2024-01-27T09:19:15;2.50;90.90
16627;DHT22;8427;52.204;7.202;2024-01-27T09:21:44;2.60;90.70
16627;DHT22;8427;52.204;7.202;2024-01-27T09:24:12;2.50;90.50
16627;DHT22;8427;52.204;7.202;2024-01-27T09:26:43;2.60;90.60
16627;DHT22;8427;52.204;7.202;2024-01-27T09:29:10;2.40;90.50
16627;DHT22;8427;52.204;7.202;2024-01-27T09:31:40;2.80;90.50
16627;DHT22;8427;52.204;7.202;2024-01-27T09:34:08;2.70;90.00
16627;DHT22;8427;52.204;7.202;2024-01-27T09:36:37;2.80;89.80
16627;DHT22;8427;52.204;7.202;2024-01-27T09:39:05;2.70;89.70
16627;DHT22;8427;52.204;7.202;2024-01-27T09:41:34;2.90;89.50
16627;DHT22;8427;52.204;7.202;2024-01-27T09:44:03;3.00;89.40
16627;DHT22;8427;52.204;7.202;2024-01-27T09:46:32;2.80;89.40
16627;DHT22;8427;52.204;7.202;2024-01-27T09:49:02;3.00;89.20
16627;DHT22;8427;52.204;7.202;2024-01-27T09:51:32;3.10;88.90
16627;DHT22;8427;52.204;7.202;2024-01-27T09:54:01;4.00;91.40
16627;DHT22;8427;52.204;7.202;2024-01-27T09:56:30;3.80;87.10
16627;DHT22;8427;52.204;7.202;2024-01-27T09:58:59;3.70;87.40
16627;DHT22;8427;52.204;7.202;2024-01-27T10:01:28;3.50;87.90
16627;DHT22;8427;52.204;7.202;2024-01-27T10:03:57;3.50;88.00
16627;DHT22;8427;52.204;7.202;2024-01-27T10:06:27;3.60;88.20
16627;DHT22;8427;52.204;7.202;2024-01-27T10:08:55;3.50;87.90
16627;DHT22;8427;52.204;7.202;2024-01-27T10:11:24;3.50;88.00
16627;DHT22;8427;52.204;7.202;2024-01-27T10:13:56;3.60;88.00
16627;DHT22;8427;52.204;7.202;2024-01-27T10:16:26;3.60;87.90
16627;DHT22;8427;52.204;7.202;2024-01-27T10:18:59;3.60;87.90
16627;DHT22;8427;52.204;7.202;2024-01-27T10:21:28;3.60;87.70
16627;DHT22;8427;52.204;7.202;2024-01-27T10:23:59;3.90;87.60
16627;DHT22;8427;52.204;7.202;2024-01-27T10:26:31;3.90;87.60
16627;DHT22;8427;52.204;7.202;2024-01-27T10:28:59;3.80;87.50
16627;DHT22;8427;52.204;7.202;2024-01-27T10:31:28;3.80;87.50
16627;DHT22;8427;52.204;7.202;2024-01-27T10:33:57;3.90;87.50
16627;DHT22;8427;52.204;7.202;2024-01-27T10:36:26;4.00;87.60
16627;DHT22;8427;52.204;7.202;2024-01-27T10:38:55;4.20;87.00
16627;DHT22;8427;52.204;7.202;2024-01-27T10:41:24;4.10;86.80
16627;DHT22;8427;52.204;7.202;2024-01-27T10:43:54;4.20;86.50
16627;DHT22;8427;52.204;7.202;2024-01-27T10:46:24;4.30;86.80
16627;DHT22;8427;52.204;7.202;2024-01-27T10:48:53;4.60;86.20
16627;DHT22;8427;52.204;7.202;2024-01-27T10:51:22;4.30;86.10
16627;DHT22;8427;52.204;7.202;2024-01-27T10:53:53;4.50;85.80
16627;DHT22;8427;52.204;7.202;2024-01-27T10:56:24;4.50;85.60
16627;DHT22;8427;52.204;7.202;2024-01-27T10:58:53;4.50;85.40
16627;DHT22;8427;52.204;7.202;2024-01-27T11:01:21;4.70;85.40
16627;DHT22;8427;52.204;7.202;2024-01-27T11:03:51;4.80;85.40
16627;DHT22;8427;52.204;7.202;2024-01-27T11:06:21;4.80;84.90
16627;DHT22;8427;52.204;7.202;2024-01-27T11:08:49;4.80;84.70
16627;DHT22;8427;52.204;7.202;2024-01-27T11:11:18;4.90;84.60
16627;DHT22;8427;52.204;7.202;2024-01-27T11:13:47;5.00;84.70
16627;DHT22;8427;52.204;7.202;2024-01-27T11:16:18;4.80;84.40
16627;DHT22;8427;52.204;7.202;2024-01-27T11:18:47;5.00;84.30
16627;DHT22;8427;52.204;7.202;2024-01-27T11:21:16;5.20;83.90
16627;DHT22;8427;52.204;7.202;2024-01-27T11:23:44;5.10;83.90
16627;DHT22;8427;52.204;7.202;2024-01-27T11:26:17;5.20;83.80
16627;DHT22;8427;52.204;7.202;2024-01-27T11:28:45;5.40;83.10
16627;DHT22;8427;52.204;7.202;2024-01-27T11:31:16;5.40;82.90
16627;DHT22;8427;52.204;7.202;2024-01-27T11:36:48;5.20;82.70
16627;DHT22;8427;52.204;7.202;2024-01-27T11:39:23;5.50;82.70
16627;DHT22;8427;52.204;7.202;2024-01-27T11:41:52;5.50;82.40
16627;DHT22;8427;52.204;7.202;2024-01-27T11:44:20;5.50;82.60
16627;DHT22;8427;52.204;7.202;2024-01-27T11:46:50;5.40;81.70
16627;DHT22;8427;52.204;7.202;2024-01-27T11:49:19;5.70;81.90
16627;DHT22;8427;52.204;7.202;2024-01-27T11:51:48;5.70;81.50
16627;DHT22;8427;52.204;7.202;2024-01-27T11:54:16;5.60;81.40
16627;DHT22;8427;52.204;7.202;2024-01-27T11:56:45;5.50;80.90
16627;DHT22;8427;52.204;7.202;2024-01-27T11:59:14;5.70;81.20
16627;DHT22;8427;52.204;7.202;2024-01-27T12:01:42;5.70;80.90
16627;DHT22;8427;52.204;7.202;2024-01-27T12:04:12;5.70;81.20
16627;DHT22;8427;52.204;7.202;2024-01-27T12:06:41;5.70;81.00
16627;DHT22;8427;52.204;7.202;2024-01-27T12:09:10;5.50;80.90
16627;DHT22;8427;52.204;7.202;2024-01-27T12:11:39;5.80;80.70
16627;DHT22;8427;52.204;7.202;2024-01-27T12:14:08;5.80;80.40
16627;DHT22;8427;52.204;7.202;2024-01-27T12:16:36;5.60;80.30
16627;DHT22;8427;52.204;7.202;2024-01-27T12:19:04;5.90;80.30
16627;DHT22;8427;52.204;7.202;2024-01-27T12:21:34;5.90;80.10
16627;DHT22;8427;52.204;7.202;2024-01-27T12:24:02;5.80;80.00
16627;DHT22;8427;52.204;7.202;2024-01-27T12:26:31;5.90;80.00
16627;DHT22;8427;52.204;7.202;2024-01-27T12:28:59;5.80;80.00
16627;DHT22;8427;52.204;7.202;2024-01-27T12:31:27;5.80;80.00
16627;DHT22;8427;52.204;7.202;2024-01-27T12:33:57;5.90;79.90
16627;DHT22;8427;52.204;7.202;2024-01-27T12:36:27;5.80;80.00
16627;DHT22;8427;52.204;7.202;2024-01-27T12:38:57;6.10;79.80
16627;DHT22;8427;52.204;7.202;2024-01-27T12:41:26;6.10;79.30
16627;DHT22;8427;52.204;7.202;2024-01-27T12:43:55;6.00;79.20
16627;DHT22;8427;52.204;7.202;2024-01-27T12:46:23;6.10;78.60
16627;DHT22;8427;52.204;7.202;2024-01-27T12:48:52;6.50;78.70
16627;DHT22;8427;52.204;7.202;2024-01-27T12:51:20;6.10;78.30
16627;DHT22;8427;52.204;7.202;2024-01-27T12:53:49;6.10;78.30
16627;DHT22;8427;52.204;7.202;2024-01-27T12:56:18;6.20;78.30
16627;DHT22;8427;52.204;7.202;2024-01-27T12:58:46;6.20;78.40
16627;DHT22;8427;52.204;7.202;2024-01-27T13:01:15;6.30;78.60
16627;DHT22;8427;52.204;7.202;2024-01-27T13:03:43;6.10;78.50
16627;DHT22;8427;52.204;7.202;2024-01-27T13:06:12;6.10;78.60
16627;DHT22;8427;52.204;7.202;2024-01-27T13:08:41;6.20;78.50
16627;DHT22;8427;52.204;7.202;2024-01-27T13:11:09;6.40;78.50
16627;DHT22;8427;52.204;7.202;2024-01-27T13:13:41;6.20;78.20
16627;DHT22;8427;52.204;7.202;2024-01-27T13:16:11;6.50;78.00
16627;DHT22;8427;52.204;7.202;2024-01-27T13:18:39;6.40;78.00
16627;DHT22;8427;52.204;7.202;2024-01-27T13:21:08;6.40;77.90
16627;DHT22;8427;52.204;7.202;2024-01-27T13:23:36;6.30;77.60
16627;DHT22;8427;52.204;7.202;2024-01-27T13:26:04;6.40;78.10
16627;DHT22;8427;52.204;7.202;2024-01-27T13:28:46;6.40;78.10
16627;DHT22;8427;52.204;7.202;2024-01-27T13:31:16;6.40;77.80
16627;DHT22;8427;52.204;7.202;2024-01-27T13:33:44;6.20;77.40
16627;DHT22;8427;52.204;7.202;2024-01-27T13:36:13;6.40;77.00
16627;DHT22;8427;52.204;7.202;2024-01-27T13:38:41;6.50;77.00
16627;DHT22;8427;52.204;7.202;2024-01-27T13:41:09;6.50;76.70
16627;DHT22;8427;52.204;7.202;2024-01-27T13:43:38;6.40;76.80
16627;DHT22;8427;52.204;7.202;2024-01-27T13:46:07;6.70;76.50
16627;DHT22;8427;52.204;7.202;2024-01-27T13:48:35;6.50;76.10
16627;DHT22;8427;52.204;7.202;2024-01-27T13:51:04;6.40;76.40
16627;DHT22;8427;52.204;7.202;2024-01-27T13:53:32;6.60;76.60
16627;DHT22;8427;52.204;7.202;2024-01-27T13:56:12;6.50;77.10
16627;DHT22;8427;52.204;7.202;2024-01-27T13:58:41;6.60;77.10
16627;DHT22;8427;52.204;7.202;2024-01-27T14:01:11;6.70;77.10
16627;DHT22;8427;52.204;7.202;2024-01-27T14:03:39;6.60;77.20
16627;DHT22;8427;52.204;7.202;2024-01-27T14:06:08;6.50;76.90
16627;DHT22;8427;52.204;7.202;2024-01-27T14:08:40;6.60;77.00
16627;DHT22;8427;52.204;7.202;2024-01-27T14:11:08;6.50;76.60
16627;DHT22;8427;52.204;7.202;2024-01-27T14:13:37;6.50;77.00
16627;DHT22;8427;52.204;7.202;2024-01-27T14:16:05;6.40;76.80
16627;DHT22;8427;52.204;7.202;2024-01-27T14:18:35;6.20;76.20
16627;DHT22;8427;52.204;7.202;2024-01-27T14:21:03;6.40;76.10
16627;DHT22;8427;52.204;7.202;2024-01-27T14:23:32;6.40;76.10
16627;DHT22;8427;52.204;7.202;2024-01-27T14:26:00;6.50;75.70
16627;DHT22;8427;52.204;7.202;2024-01-27T14:28:28;6.50;75.80
16627;DHT22;8427;52.204;7.202;2024-01-27T14:30:56;6.40;75.60
16627;DHT22;8427;52.204;7.202;2024-01-27T14:33:24;6.30;75.90
16627;DHT22;8427;52.204;7.202;2024-01-27T14:35:54;6.30;76.00
16627;DHT22;8427;52.204;7.202;2024-01-27T14:38:22;6.30;75.50
16627;DHT22;8427;52.204;7.202;2024-01-27T14:40:51;6.40;74.60
16627;DHT22;8427;52.204;7.202;2024-01-27T14:43:19;6.20;75.10
16627;DHT22;8427;52.204;7.202;2024-01-27T14:45:48;6.20;75.70
16627;DHT22;8427;52.204;7.202;2024-01-27T14:48:17;6.10;75.80
16627;DHT22;8427;52.204;7.202;2024-01-27T14:50:47;6.30;75.30
16627;DHT22;8427;52.204;7.202;2024-01-27T14:53:20;6.10;76.10
16627;DHT22;8427;52.204;7.202;2024-01-27T14:55:49;5.80;76.10
16627;DHT22;8427;52.204;7.202;2024-01-27T14:58:17;5.90;75.80
16627;DHT22;8427;52.204;7.202;2024-01-27T15:00:46;6.10;75.80
16627;DHT22;8427;52.204;7.202;2024-01-27T15:03:19;5.90;76.40
16627;DHT22;8427;52.204;7.202;2024-01-27T15:05:48;5.90;76.30
16627;DHT22;8427;52.204;7.202;2024-01-27T15:08:16;5.90;76.50
16627;DHT22;8427;52.204;7.202;2024-01-27T15:10:46;5.90;76.60
16627;DHT22;8427;52.204;7.202;2024-01-27T15:13:15;5.70;76.80
16627;DHT22;8427;52.204;7.202;2024-01-27T15:15:47;5.50;76.70
16627;DHT22;8427;52.204;7.202;2024-01-27T15:18:15;5.70;76.90
16627;DHT22;8427;52.204;7.202;2024-01-27T15:20:46;5.70;77.10
16627;DHT22;8427;52.204;7.202;2024-01-27T15:23:14;5.80;77.20
16627;DHT22;8427;52.204;7.202;2024-01-27T15:25:43;5.80;77.40
16627;DHT22;8427;52.204;7.202;2024-01-27T15:28:12;5.60;77.60
16627;DHT22;8427;52.204;7.202;2024-01-27T15:30:41;5.50;78.30
16627;DHT22;8427;52.204;7.202;2024-01-27T15:33:09;5.50;78.20
16627;DHT22;8427;52.204;7.202;2024-01-27T15:35:38;5.50;78.60
16627;DHT22;8427;52.204;7.202;2024-01-27T15:38:07;5.20;78.70
16627;DHT22;8427;52.204;7.202;2024-01-27T15:40:35;5.30;78.80
16627;DHT22;8427;52.204;7.202;2024-01-27T15:43:04;5.10;79.40
16627;DHT22;8427;52.204;7.202;2024-01-27T15:45:33;5.10;79.50
16627;DHT22;8427;52.204;7.202;2024-01-27T15:48:02;4.90;79.70
16627;DHT22;8427;52.204;7.202;2024-01-27T15:50:30;4.90;80.00
16627;DHT22;8427;52.204;7.202;2024-01-27T15:53:00;4.80;80.60
16627;DHT22;8427;52.204;7.202;2024-01-27T15:55:30;4.80;80.50
16627;DHT22;8427;52.204;7.202;2024-01-27T15:58:00;4.70;80.90
16627;DHT22;8427;52.204;7.202;2024-01-27T16:00:28;4.70;81.00
16627;DHT22;8427;52.204;7.202;2024-01-27T16:02:58;4.50;81.20
16627;DHT22;8427;52.204;7.202;2024-01-27T16:05:26;4.50;81.30
16627;DHT22;8427;52.204;7.202;2024-01-27T16:07:54;4.50;81.40
16627;DHT22;8427;52.204;7.202;2024-01-27T16:10:22;4.50;81.40
16627;DHT22;8427;52.204;7.202;2024-01-27T16:12:51;4.10;82.10
16627;DHT22;8427;52.204;7.202;2024-01-27T16:15:19;4.10;82.30